Aberdeen, Maryland
Current Conditions -  °F | °C
As of 9:47 AM on Thursday 30 Oct 2014 (Local Time) from KAPG Reporting Station
Scattered Clouds Scattered Clouds  
Wind Chill: 11°   Ceiling: Unl
Heat Index: 11°   Visibility: 7mi
Dew Point:   Wind: 0mph
Humidity: 71%   Direction: NA
Pressure: 30.04"   Gusts: NA
Location:  39.51°N, 76.16°W
Report Text: KAPG 301347Z 00000KT 7SM SCT060 11/06 A3004
Loading
Personal Weather Stations






























Interactive Weather Map
Tropical Storm Tracking
New forecast layout! Learn more

10-Day Weather Forecast

Advertisements
Track Severe Weather on mobile